sensor_id;sensor_type;location;lat;lon;timestamp;pressure;altitude;pressure_sealevel;temperature;humidity
73267;BME280;61495;53.400;7.608;2023-07-02T00:00:17;100340.72;;;16.10;86.56
73267;BME280;61495;53.400;7.608;2023-07-02T00:02:42;100335.59;;;16.08;86.65
73267;BME280;61495;53.400;7.608;2023-07-02T00:05:07;100341.81;;;16.09;86.63
73267;BME280;61495;53.400;7.608;2023-07-02T00:07:33;100339.84;;;16.04;86.60
73267;BME280;61495;53.400;7.608;2023-07-02T00:10:01;100333.06;;;16.02;86.53
73267;BME280;61495;53.400;7.608;2023-07-02T00:12:26;100334.72;;;16.03;86.74
73267;BME280;61495;53.400;7.608;2023-07-02T00:14:51;100336.28;;;15.99;86.79
73267;BME280;61495;53.400;7.608;2023-07-02T00:17:18;100335.97;;;15.95;86.96
73267;BME280;61495;53.400;7.608;2023-07-02T00:19:44;100350.34;;;16.01;86.23
73267;BME280;61495;53.400;7.608;2023-07-02T00:22:11;100343.03;;;15.96;86.38
73267;BME280;61495;53.400;7.608;2023-07-02T00:24:37;100339.53;;;16.01;85.92
73267;BME280;61495;53.400;7.608;2023-07-02T00:27:03;100343.47;;;15.88;86.76
73267;BME280;61495;53.400;7.608;2023-07-02T00:29:28;100350.00;;;15.92;86.11
73267;BME280;61495;53.400;7.608;2023-07-02T00:31:54;100352.69;;;15.92;86.26
73267;BME280;61495;53.400;7.608;2023-07-02T00:34:19;100344.03;;;15.90;85.64
73267;BME280;61495;53.400;7.608;2023-07-02T00:36:45;100349.44;;;15.69;87.19
73267;BME280;61495;53.400;7.608;2023-07-02T00:39:11;100348.13;;;15.71;86.58
73267;BME280;61495;53.400;7.608;2023-07-02T00:41:37;100346.75;;;15.69;86.56
73267;BME280;61495;53.400;7.608;2023-07-02T00:44:02;100352.16;;;15.69;86.15
73267;BME280;61495;53.400;7.608;2023-07-02T00:46:28;100348.56;;;15.63;85.76
73267;BME280;61495;53.400;7.608;2023-07-02T00:48:54;100345.00;;;15.57;85.38
73267;BME280;61495;53.400;7.608;2023-07-02T00:51:22;100345.50;;;15.54;85.27
73267;BME280;61495;53.400;7.608;2023-07-02T00:53:49;100349.09;;;15.60;84.38
73267;BME280;61495;53.400;7.608;2023-07-02T00:56:15;100344.63;;;15.49;83.72
73267;BME280;61495;53.400;7.608;2023-07-02T00:58:43;100343.81;;;15.48;84.14
73267;BME280;61495;53.400;7.608;2023-07-02T01:01:21;100344.06;;;15.47;83.79
73267;BME280;61495;53.400;7.608;2023-07-02T01:04:06;100342.41;;;15.46;83.22
73267;BME280;61495;53.400;7.608;2023-07-02T01:06:34;100340.66;;;15.35;83.40
73267;BME280;61495;53.400;7.608;2023-07-02T01:09:04;100346.03;;;15.35;83.02
73267;BME280;61495;53.400;7.608;2023-07-02T01:14:06;100345.41;;;15.28;82.74
73267;BME280;61495;53.400;7.608;2023-07-02T01:16:33;100345.41;;;15.28;82.68
73267;BME280;61495;53.400;7.608;2023-07-02T01:19:03;100341.56;;;15.24;82.25
73267;BME280;61495;53.400;7.608;2023-07-02T01:21:30;100340.66;;;15.18;82.81
73267;BME280;61495;53.400;7.608;2023-07-02T01:23:57;100334.28;;;15.24;82.00
73267;BME280;61495;53.400;7.608;2023-07-02T01:26:23;100342.31;;;15.19;82.35
73267;BME280;61495;53.400;7.608;2023-07-02T01:28:49;100342.31;;;15.19;82.30
73267;BME280;61495;53.400;7.608;2023-07-02T01:31:15;100348.38;;;15.10;82.50
73267;BME280;61495;53.400;7.608;2023-07-02T01:33:41;100335.44;;;15.12;82.21
73267;BME280;61495;53.400;7.608;2023-07-02T01:36:07;100340.22;;;15.05;81.92
73267;BME280;61495;53.400;7.608;2023-07-02T01:38:38;100338.59;;;15.03;82.54
73267;BME280;61495;53.400;7.608;2023-07-02T01:41:20;100347.81;;;15.08;81.82
73267;BME280;61495;53.400;7.608;2023-07-02T01:44:03;100344.03;;;15.09;81.92
73267;BME280;61495;53.400;7.608;2023-07-02T01:46:38;100357.72;;;15.02;82.14
73267;BME280;61495;53.400;7.608;2023-07-02T01:49:20;100355.25;;;15.00;82.32
73267;BME280;61495;53.400;7.608;2023-07-02T01:52:03;100340.41;;;14.98;82.14
73267;BME280;61495;53.400;7.608;2023-07-02T01:54:47;100342.28;;;14.97;82.44
73267;BME280;61495;53.400;7.608;2023-07-02T01:57:21;100346.06;;;14.96;82.28
73267;BME280;61495;53.400;7.608;2023-07-02T01:59:46;100345.47;;;14.94;82.07
73267;BME280;61495;53.400;7.608;2023-07-02T02:02:12;100341.88;;;14.89;82.32
73267;BME280;61495;53.400;7.608;2023-07-02T02:04:37;100344.84;;;14.87;82.71
73267;BME280;61495;53.400;7.608;2023-07-02T02:07:03;100346.94;;;14.85;82.62
73267;BME280;61495;53.400;7.608;2023-07-02T02:09:28;100342.88;;;14.83;82.38
73267;BME280;61495;53.400;7.608;2023-07-02T02:11:55;100336.31;;;14.79;82.78
73267;BME280;61495;53.400;7.608;2023-07-02T02:14:20;100339.28;;;14.77;83.62
73267;BME280;61495;53.400;7.608;2023-07-02T02:16:47;100342.47;;;14.74;82.83
73267;BME280;61495;53.400;7.608;2023-07-02T02:19:12;100339.44;;;14.71;83.23
73267;BME280;61495;53.400;7.608;2023-07-02T02:21:40;100341.91;;;14.72;83.58
73267;BME280;61495;53.400;7.608;2023-07-02T02:24:06;100342.72;;;14.56;83.68
73267;BME280;61495;53.400;7.608;2023-07-02T02:26:32;100334.56;;;14.51;83.40
73267;BME280;61495;53.400;7.608;2023-07-02T02:28:58;100342.72;;;14.56;82.84
73267;BME280;61495;53.400;7.608;2023-07-02T02:31:23;100344.34;;;14.57;82.87
73267;BME280;61495;53.400;7.608;2023-07-02T02:33:48;100335.03;;;14.48;83.60
73267;BME280;61495;53.400;7.608;2023-07-02T02:36:14;100335.38;;;14.52;83.70
73267;BME280;61495;53.400;7.608;2023-07-02T02:38:39;100338.84;;;14.52;82.91
73267;BME280;61495;53.400;7.608;2023-07-02T02:41:05;100337.97;;;14.46;83.66
73267;BME280;61495;53.400;7.608;2023-07-02T02:43:33;100354.97;;;14.47;83.33
73267;BME280;61495;53.400;7.608;2023-07-02T02:45:58;100348.75;;;14.46;83.31
73267;BME280;61495;53.400;7.608;2023-07-02T02:48:24;100351.13;;;14.43;82.68
73267;BME280;61495;53.400;7.608;2023-07-02T02:50:49;100355.38;;;14.39;83.19
73267;BME280;61495;53.400;7.608;2023-07-02T02:53:14;100356.72;;;14.25;83.82
73267;BME280;61495;53.400;7.608;2023-07-02T02:55:40;100353.53;;;14.28;83.87
73267;BME280;61495;53.400;7.608;2023-07-02T02:58:05;100360.94;;;14.21;84.70
73267;BME280;61495;53.400;7.608;2023-07-02T03:00:31;100363.06;;;14.19;84.65
73267;BME280;61495;53.400;7.608;2023-07-02T03:02:56;100361.41;;;14.18;84.31
73267;BME280;61495;53.400;7.608;2023-07-02T03:05:22;100367.28;;;14.15;85.40
73267;BME280;61495;53.400;7.608;2023-07-02T03:07:48;100358.88;;;14.11;85.58
73267;BME280;61495;53.400;7.608;2023-07-02T03:10:13;100355.81;;;14.19;85.16
73267;BME280;61495;53.400;7.608;2023-07-02T03:12:38;100355.69;;;14.14;84.69
73267;BME280;61495;53.400;7.608;2023-07-02T03:15:04;100353.00;;;14.14;85.24
73267;BME280;61495;53.400;7.608;2023-07-02T03:17:29;100349.47;;;14.14;85.27
73267;BME280;61495;53.400;7.608;2023-07-02T03:19:55;100362.88;;;14.09;85.35
73267;BME280;61495;53.400;7.608;2023-07-02T03:22:20;100357.75;;;14.07;85.03
73267;BME280;61495;53.400;7.608;2023-07-02T03:24:45;100366.44;;;13.98;85.35
73267;BME280;61495;53.400;7.608;2023-07-02T03:27:11;100364.88;;;14.02;85.54
73267;BME280;61495;53.400;7.608;2023-07-02T03:29:36;100370.44;;;13.95;85.41
73267;BME280;61495;53.400;7.608;2023-07-02T03:32:03;100367.00;;;14.00;85.36
73267;BME280;61495;53.400;7.608;2023-07-02T03:34:29;100368.69;;;13.89;86.12
73267;BME280;61495;53.400;7.608;2023-07-02T03:36:54;100375.03;;;13.83;86.38
73267;BME280;61495;53.400;7.608;2023-07-02T03:39:19;100371.16;;;13.90;86.11
73267;BME280;61495;53.400;7.608;2023-07-02T03:41:45;100371.16;;;13.90;85.92
73267;BME280;61495;53.400;7.608;2023-07-02T03:44:10;100370.56;;;13.88;85.52
73267;BME280;61495;53.400;7.608;2023-07-02T03:46:36;100362.88;;;13.80;86.15
73267;BME280;61495;53.400;7.608;2023-07-02T03:49:04;100370.97;;;13.80;86.71
73267;BME280;61495;53.400;7.608;2023-07-02T03:51:30;100369.44;;;13.73;87.03
73267;BME280;61495;53.400;7.608;2023-07-02T03:53:58;100365.84;;;13.67;87.26
73267;BME280;61495;53.400;7.608;2023-07-02T03:56:23;100367.38;;;13.63;87.49
73267;BME280;61495;53.400;7.608;2023-07-02T03:58:49;100372.28;;;13.66;86.82
73267;BME280;61495;53.400;7.608;2023-07-02T04:01:14;100373.69;;;13.69;87.12
73267;BME280;61495;53.400;7.608;2023-07-02T04:03:47;100388.06;;;13.74;86.63
73267;BME280;61495;53.400;7.608;2023-07-02T04:06:12;100382.00;;;13.67;87.20
73267;BME280;61495;53.400;7.608;2023-07-02T04:08:38;100382.72;;;13.63;87.51
73267;BME280;61495;53.400;7.608;2023-07-02T04:11:03;100381.28;;;13.60;87.83
73267;BME280;61495;53.400;7.608;2023-07-02T04:13:28;100376.38;;;13.57;88.23
73267;BME280;61495;53.400;7.608;2023-07-02T04:15:54;100379.88;;;13.69;87.11
73267;BME280;61495;53.400;7.608;2023-07-02T04:18:19;100380.81;;;13.63;87.07
73267;BME280;61495;53.400;7.608;2023-07-02T04:20:44;100385.88;;;13.60;87.90
73267;BME280;61495;53.400;7.608;2023-07-02T04:23:10;100386.59;;;13.55;88.37
73267;BME280;61495;53.400;7.608;2023-07-02T04:25:35;100387.75;;;13.59;87.68
73267;BME280;61495;53.400;7.608;2023-07-02T04:28:00;100387.84;;;13.64;87.46
73267;BME280;61495;53.400;7.608;2023-07-02T04:30:26;100388.81;;;13.58;88.80
73267;BME280;61495;53.400;7.608;2023-07-02T04:32:51;100383.28;;;13.65;88.58
73267;BME280;61495;53.400;7.608;2023-07-02T04:35:17;100388.41;;;13.66;88.21
73267;BME280;61495;53.400;7.608;2023-07-02T04:37:43;100390.63;;;13.69;88.32
73267;BME280;61495;53.400;7.608;2023-07-02T04:40:09;100391.81;;;13.73;88.36
73267;BME280;61495;53.400;7.608;2023-07-02T04:42:36;100393.25;;;13.64;89.10
73267;BME280;61495;53.400;7.608;2023-07-02T04:45:03;100388.06;;;13.74;87.84
73267;BME280;61495;53.400;7.608;2023-07-02T04:47:30;100392.75;;;13.67;89.09
73267;BME280;61495;53.400;7.608;2023-07-02T04:49:55;100392.63;;;13.74;88.64
73267;BME280;61495;53.400;7.608;2023-07-02T04:52:20;100388.28;;;13.73;88.84
73267;BME280;61495;53.400;7.608;2023-07-02T04:54:45;100390.06;;;13.67;89.18
73267;BME280;61495;53.400;7.608;2023-07-02T04:57:11;100388.06;;;13.74;89.32
73267;BME280;61495;53.400;7.608;2023-07-02T04:59:38;100393.16;;;13.87;88.97
73267;BME280;61495;53.400;7.608;2023-07-02T05:02:03;100401.69;;;13.96;88.40
73267;BME280;61495;53.400;7.608;2023-07-02T05:04:29;100397.66;;;14.10;88.12
73267;BME280;61495;53.400;7.608;2023-07-02T05:06:54;100397.03;;;14.20;87.39
73267;BME280;61495;53.400;7.608;2023-07-02T05:09:19;100404.53;;;14.18;88.02
73267;BME280;61495;53.400;7.608;2023-07-02T05:11:45;100402.00;;;14.39;87.43
73267;BME280;61495;53.400;7.608;2023-07-02T05:14:10;100406.09;;;14.59;87.69
73267;BME280;61495;53.400;7.608;2023-07-02T05:16:35;100399.28;;;14.84;86.58
73267;BME280;61495;53.400;7.608;2023-07-02T05:19:01;100399.56;;;14.88;86.95
73267;BME280;61495;53.400;7.608;2023-07-02T05:21:26;100409.06;;;15.07;86.68
73267;BME280;61495;53.400;7.608;2023-07-02T05:23:51;100406.91;;;15.26;86.25
73267;BME280;61495;53.400;7.608;2023-07-02T05:26:17;100410.13;;;15.44;85.24
73267;BME280;61495;53.400;7.608;2023-07-02T05:28:42;100398.66;;;15.71;84.62
73267;BME280;61495;53.400;7.608;2023-07-02T05:31:07;100400.47;;;15.87;84.51
73267;BME280;61495;53.400;7.608;2023-07-02T05:33:34;100410.06;;;15.99;82.77
73267;BME280;61495;53.400;7.608;2023-07-02T05:35:59;100417.84;;;16.18;82.65
73267;BME280;61495;53.400;7.608;2023-07-02T05:38:24;100416.59;;;16.30;81.45
73267;BME280;61495;53.400;7.608;2023-07-02T05:40:50;100412.44;;;16.44;81.28
73267;BME280;61495;53.400;7.608;2023-07-02T05:43:15;100408.00;;;16.60;79.33
73267;BME280;61495;53.400;7.608;2023-07-02T05:45:41;100409.31;;;16.84;79.84
73267;BME280;61495;53.400;7.608;2023-07-02T05:48:06;100414.00;;;16.99;78.57
73267;BME280;61495;53.400;7.608;2023-07-02T05:50:31;100419.53;;;17.09;77.67
73267;BME280;61495;53.400;7.608;2023-07-02T05:52:57;100413.06;;;17.15;77.21
73267;BME280;61495;53.400;7.608;2023-07-02T05:55:22;100419.09;;;17.27;76.13
73267;BME280;61495;53.400;7.608;2023-07-02T05:57:48;100430.81;;;17.38;76.77
73267;BME280;61495;53.400;7.608;2023-07-02T06:00:14;100416.72;;;17.83;76.16
73267;BME280;61495;53.400;7.608;2023-07-02T06:02:39;100425.38;;;17.85;74.00
73267;BME280;61495;53.400;7.608;2023-07-02T06:05:05;100420.44;;;17.66;74.46
73267;BME280;61495;53.400;7.608;2023-07-02T06:07:30;100405.63;;;17.84;74.54
73267;BME280;61495;53.400;7.608;2023-07-02T06:09:56;100424.22;;;17.65;74.66
73267;BME280;61495;53.400;7.608;2023-07-02T06:12:22;100416.94;;;17.76;74.88
73267;BME280;61495;53.400;7.608;2023-07-02T06:14:47;100434.78;;;17.67;75.25
73267;BME280;61495;53.400;7.608;2023-07-02T06:17:13;100442.34;;;17.55;74.71
73267;BME280;61495;53.400;7.608;2023-07-02T06:19:39;100434.94;;;17.45;73.58
73267;BME280;61495;53.400;7.608;2023-07-02T06:22:04;100449.53;;;17.39;73.23
73267;BME280;61495;53.400;7.608;2023-07-02T06:24:30;100443.38;;;17.54;74.35
73267;BME280;61495;53.400;7.608;2023-07-02T06:26:56;100443.34;;;17.49;73.92
73267;BME280;61495;53.400;7.608;2023-07-02T06:29:22;100447.19;;;17.58;73.73
73267;BME280;61495;53.400;7.608;2023-07-02T06:31:48;100450.69;;;17.53;73.22
73267;BME280;61495;53.400;7.608;2023-07-02T06:34:13;100451.25;;;17.55;71.03
73267;BME280;61495;53.400;7.608;2023-07-02T06:36:39;100445.63;;;17.67;72.29
73267;BME280;61495;53.400;7.608;2023-07-02T06:39:05;100451.63;;;17.74;70.80
73267;BME280;61495;53.400;7.608;2023-07-02T06:41:30;100453.50;;;17.68;70.28
73267;BME280;61495;53.400;7.608;2023-07-02T06:43:55;100459.00;;;17.84;70.52
73267;BME280;61495;53.400;7.608;2023-07-02T06:46:21;100464.00;;;18.12;69.35
73267;BME280;61495;53.400;7.608;2023-07-02T06:48:46;100459.97;;;18.19;68.26
73267;BME280;61495;53.400;7.608;2023-07-02T06:51:11;100465.94;;;18.26;68.30
73267;BME280;61495;53.400;7.608;2023-07-02T06:53:40;100479.56;;;18.42;67.17
73267;BME280;61495;53.400;7.608;2023-07-02T06:56:07;100477.34;;;18.23;67.42
73267;BME280;61495;53.400;7.608;2023-07-02T06:58:33;100479.22;;;18.18;67.05
73267;BME280;61495;53.400;7.608;2023-07-02T07:00:58;100474.53;;;17.98;65.83
73267;BME280;61495;53.400;7.608;2023-07-02T07:03:23;100478.06;;;18.04;66.31
73267;BME280;61495;53.400;7.608;2023-07-02T07:05:49;100476.88;;;18.47;67.67
73267;BME280;61495;53.400;7.608;2023-07-02T07:08:14;100479.63;;;18.52;67.23
73267;BME280;61495;53.400;7.608;2023-07-02T07:10:40;100485.06;;;18.57;66.90
73267;BME280;61495;53.400;7.608;2023-07-02T07:13:05;100494.31;;;18.66;66.35
73267;BME280;61495;53.400;7.608;2023-07-02T07:15:33;100489.16;;;18.69;64.60
73267;BME280;61495;53.400;7.608;2023-07-02T07:17:59;100488.41;;;18.94;64.97
73267;BME280;61495;53.400;7.608;2023-07-02T07:20:25;100496.00;;;19.17;64.52
73267;BME280;61495;53.400;7.608;2023-07-02T07:22:50;100490.03;;;19.20;63.25
73267;BME280;61495;53.400;7.608;2023-07-02T07:25:15;100506.31;;;19.46;62.84
73267;BME280;61495;53.400;7.608;2023-07-02T07:27:40;100515.56;;;19.34;61.50
73267;BME280;61495;53.400;7.608;2023-07-02T07:30:06;100509.03;;;19.46;61.06
73267;BME280;61495;53.400;7.608;2023-07-02T07:32:32;100511.78;;;19.40;60.51
73267;BME280;61495;53.400;7.608;2023-07-02T07:34:57;100510.38;;;19.28;60.83
73267;BME280;61495;53.400;7.608;2023-07-02T07:37:23;100519.06;;;19.05;62.30
73267;BME280;61495;53.400;7.608;2023-07-02T07:39:50;100512.28;;;18.97;62.90
73267;BME280;61495;53.400;7.608;2023-07-02T07:42:15;100512.81;;;18.99;63.94
73267;BME280;61495;53.400;7.608;2023-07-02T07:44:42;100522.56;;;18.75;62.84
73267;BME280;61495;53.400;7.608;2023-07-02T07:47:07;100523.91;;;18.67;62.01
73267;BME280;61495;53.400;7.608;2023-07-02T07:49:33;100521.47;;;18.86;62.67
73267;BME280;61495;53.400;7.608;2023-07-02T07:51:58;100524.22;;;19.21;62.34
73267;BME280;61495;53.400;7.608;2023-07-02T07:54:23;100514.75;;;19.44;61.48
73267;BME280;61495;53.400;7.608;2023-07-02T07:56:50;100528.06;;;19.56;61.24
73267;BME280;61495;53.400;7.608;2023-07-02T07:59:15;100526.94;;;19.77;60.78
73267;BME280;61495;53.400;7.608;2023-07-02T08:01:41;100526.41;;;19.80;60.38
73267;BME280;61495;53.400;7.608;2023-07-02T08:04:06;100524.19;;;19.92;59.57
73267;BME280;61495;53.400;7.608;2023-07-02T08:06:31;100524.09;;;20.17;59.60
73267;BME280;61495;53.400;7.608;2023-07-02T08:08:57;100533.06;;;20.23;59.42
73267;BME280;61495;53.400;7.608;2023-07-02T08:11:22;100534.44;;;20.25;60.13
73267;BME280;61495;53.400;7.608;2023-07-02T08:13:47;100531.19;;;20.18;60.48
73267;BME280;61495;53.400;7.608;2023-07-02T08:16:13;100547.06;;;20.65;61.00
73267;BME280;61495;53.400;7.608;2023-07-02T08:18:38;100547.25;;;20.79;60.66
73267;BME280;61495;53.400;7.608;2023-07-02T08:21:04;100551.69;;;20.65;59.04
73267;BME280;61495;53.400;7.608;2023-07-02T08:23:31;100540.91;;;20.44;58.16
73267;BME280;61495;53.400;7.608;2023-07-02T08:25:57;100545.09;;;20.76;58.98
73267;BME280;61495;53.400;7.608;2023-07-02T08:28:22;100552.03;;;20.97;60.68
73267;BME280;61495;53.400;7.608;2023-07-02T08:30:48;100539.75;;;21.04;59.77
73267;BME280;61495;53.400;7.608;2023-07-02T08:33:13;100546.81;;;20.62;56.65
73267;BME280;61495;53.400;7.608;2023-07-02T08:35:38;100545.28;;;20.35;57.78
73267;BME280;61495;53.400;7.608;2023-07-02T08:38:04;100550.47;;;20.37;58.42
73267;BME280;61495;53.400;7.608;2023-07-02T08:40:29;100565.50;;;20.09;56.38
73267;BME280;61495;53.400;7.608;2023-07-02T08:42:55;100557.03;;;20.16;58.17
73267;BME280;61495;53.400;7.608;2023-07-02T08:45:23;100559.28;;;20.68;59.98
73267;BME280;61495;53.400;7.608;2023-07-02T08:47:50;100558.72;;;20.71;56.84
73267;BME280;61495;53.400;7.608;2023-07-02T08:50:16;100554.41;;;20.65;57.00
73267;BME280;61495;53.400;7.608;2023-07-02T08:52:42;100568.41;;;20.92;57.45
73267;BME280;61495;53.400;7.608;2023-07-02T08:55:08;100560.72;;;21.04;56.01
73267;BME280;61495;53.400;7.608;2023-07-02T08:57:35;100556.38;;;21.08;55.26
73267;BME280;61495;53.400;7.608;2023-07-02T09:00:04;100562.00;;;21.22;56.19
73267;BME280;61495;53.400;7.608;2023-07-02T09:02:33;100563.16;;;21.11;55.92
73267;BME280;61495;53.400;7.608;2023-07-02T09:05:03;100569.50;;;20.96;53.64
73267;BME280;61495;53.400;7.608;2023-07-02T09:07:29;100567.56;;;21.01;54.09
73267;BME280;61495;53.400;7.608;2023-07-02T09:09:55;100570.56;;;21.44;55.28
73267;BME280;61495;53.400;7.608;2023-07-02T09:12:27;100573.47;;;21.52;54.33
73267;BME280;61495;53.400;7.608;2023-07-02T09:15:03;100579.00;;;21.42;53.88
73267;BME280;61495;53.400;7.608;2023-07-02T09:17:36;100577.22;;;21.28;52.75
73267;BME280;61495;53.400;7.608;2023-07-02T09:20:06;100584.47;;;20.98;52.08
73267;BME280;61495;53.400;7.608;2023-07-02T09:22:35;100570.94;;;21.27;54.30
73267;BME280;61495;53.400;7.608;2023-07-02T09:25:01;100580.78;;;21.57;54.06
73267;BME280;61495;53.400;7.608;2023-07-02T09:27:36;100586.66;;;21.40;51.62
73267;BME280;61495;53.400;7.608;2023-07-02T09:30:07;100589.84;;;21.47;52.29
73267;BME280;61495;53.400;7.608;2023-07-02T09:32:33;100589.50;;;21.25;52.77
73267;BME280;61495;53.400;7.608;2023-07-02T09:34:58;100602.47;;;21.38;54.41
73267;BME280;61495;53.400;7.608;2023-07-02T09:37:24;100601.56;;;21.14;52.95
73267;BME280;61495;53.400;7.608;2023-07-02T09:39:51;100600.72;;;21.19;54.41
73267;BME280;61495;53.400;7.608;2023-07-02T09:42:17;100601.09;;;21.41;55.23
73267;BME280;61495;53.400;7.608;2023-07-02T09:44:45;100599.75;;;21.38;53.32
73267;BME280;61495;53.400;7.608;2023-07-02T09:47:12;100599.47;;;20.91;53.60
73267;BME280;61495;53.400;7.608;2023-07-02T09:49:39;100598.31;;;21.07;54.39
73267;BME280;61495;53.400;7.608;2023-07-02T09:52:06;100593.66;;;21.08;53.07
73267;BME280;61495;53.400;7.608;2023-07-02T09:54:33;100600.16;;;21.22;54.54
73267;BME280;61495;53.400;7.608;2023-07-02T09:56:59;100593.31;;;21.24;54.01
73267;BME280;61495;53.400;7.608;2023-07-02T09:59:25;100599.06;;;21.23;54.13
73267;BME280;61495;53.400;7.608;2023-07-02T10:01:51;100603.53;;;20.98;53.86
73267;BME280;61495;53.400;7.608;2023-07-02T10:04:18;100602.81;;;20.73;54.80
73267;BME280;61495;53.400;7.608;2023-07-02T10:06:49;100613.25;;;20.56;54.42
73267;BME280;61495;53.400;7.608;2023-07-02T10:09:16;100607.38;;;20.18;54.60
73267;BME280;61495;53.400;7.608;2023-07-02T10:11:42;100605.72;;;20.32;54.01
73267;BME280;61495;53.400;7.608;2023-07-02T10:14:07;100623.16;;;20.21;54.75
73267;BME280;61495;53.400;7.608;2023-07-02T10:16:32;100619.88;;;20.39;56.31
73267;BME280;61495;53.400;7.608;2023-07-02T10:19:08;100607.25;;;20.59;57.10
73267;BME280;61495;53.400;7.608;2023-07-02T10:21:35;100624.41;;;20.59;56.77
73267;BME280;61495;53.400;7.608;2023-07-02T10:24:16;100624.47;;;20.39;57.33
73267;BME280;61495;53.400;7.608;2023-07-02T10:26:56;100622.44;;;20.75;59.84
73267;BME280;61495;53.400;7.608;2023-07-02T10:29:25;100621.09;;;20.67;55.69
73267;BME280;61495;53.400;7.608;2023-07-02T10:31:52;100614.38;;;20.49;53.30
73267;BME280;61495;53.400;7.608;2023-07-02T10:34:31;100620.91;;;20.43;53.35
73267;BME280;61495;53.400;7.608;2023-07-02T10:36:56;100622.06;;;20.32;53.93
73267;BME280;61495;53.400;7.608;2023-07-02T10:39:22;100627.44;;;20.52;53.68
73267;BME280;61495;53.400;7.608;2023-07-02T10:41:47;100631.91;;;20.92;55.28
73267;BME280;61495;53.400;7.608;2023-07-02T10:44:14;100632.81;;;20.68;52.74
73267;BME280;61495;53.400;7.608;2023-07-02T10:46:44;100636.47;;;20.33;51.73
73267;BME280;61495;53.400;7.608;2023-07-02T10:49:10;100635.09;;;20.45;52.11
73267;BME280;61495;53.400;7.608;2023-07-02T10:51:37;100640.25;;;20.42;51.69
73267;BME280;61495;53.400;7.608;2023-07-02T10:54:03;100637.81;;;20.35;53.20
73267;BME280;61495;53.400;7.608;2023-07-02T10:56:30;100644.09;;;20.31;55.62
73267;BME280;61495;53.400;7.608;2023-07-02T10:58:57;100641.03;;;20.58;55.28
73267;BME280;61495;53.400;7.608;2023-07-02T11:01:27;100652.44;;;20.65;55.33
73267;BME280;61495;53.400;7.608;2023-07-02T11:03:57;100648.66;;;20.61;55.54
73267;BME280;61495;53.400;7.608;2023-07-02T11:06:23;100652.25;;;20.36;55.27
73267;BME280;61495;53.400;7.608;2023-07-02T11:08:49;100650.63;;;20.40;57.10
73267;BME280;61495;53.400;7.608;2023-07-02T11:11:14;100649.13;;;20.78;57.76
73267;BME280;61495;53.400;7.608;2023-07-02T11:13:47;100654.25;;;20.89;54.48
73267;BME280;61495;53.400;7.608;2023-07-02T11:16:19;100654.47;;;20.98;55.05
73267;BME280;61495;53.400;7.608;2023-07-02T11:18:45;100655.72;;;20.62;52.23
73267;BME280;61495;53.400;7.608;2023-07-02T11:21:10;100650.81;;;20.59;52.48
73267;BME280;61495;53.400;7.608;2023-07-02T11:23:36;100654.66;;;20.58;53.28
73267;BME280;61495;53.400;7.608;2023-07-02T11:26:02;100660.56;;;20.70;55.24
73267;BME280;61495;53.400;7.608;2023-07-02T11:28:29;100659.44;;;20.86;54.98
73267;BME280;61495;53.400;7.608;2023-07-02T11:30:56;100663.72;;;20.97;53.78
73267;BME280;61495;53.400;7.608;2023-07-02T11:33:39;100682.72;;;21.22;51.57
73267;BME280;61495;53.400;7.608;2023-07-02T11:36:05;100667.75;;;21.20;53.00
73267;BME280;61495;53.400;7.608;2023-07-02T11:38:30;100659.75;;;21.33;52.46
73267;BME280;61495;53.400;7.608;2023-07-02T11:40:56;100668.06;;;21.03;50.04
73267;BME280;61495;53.400;7.608;2023-07-02T11:43:21;100672.13;;;21.16;52.33
73267;BME280;61495;53.400;7.608;2023-07-02T11:45:47;100658.66;;;21.34;49.92
73267;BME280;61495;53.400;7.608;2023-07-02T11:48:12;100672.72;;;20.97;47.65
73267;BME280;61495;53.400;7.608;2023-07-02T11:50:38;100652.88;;;20.92;48.86
73267;BME280;61495;53.400;7.608;2023-07-02T11:53:03;100660.84;;;20.73;48.57
73267;BME280;61495;53.400;7.608;2023-07-02T11:55:28;100674.47;;;20.78;49.87
73267;BME280;61495;53.400;7.608;2023-07-02T11:57:54;100665.09;;;20.94;50.10
73267;BME280;61495;53.400;7.608;2023-07-02T12:00:19;100662.19;;;20.81;49.43
73267;BME280;61495;53.400;7.608;2023-07-02T12:02:45;100678.56;;;20.66;48.54
73267;BME280;61495;53.400;7.608;2023-07-02T12:05:10;100675.34;;;20.54;49.90
73267;BME280;61495;53.400;7.608;2023-07-02T12:07:35;100675.31;;;20.64;50.25
73267;BME280;61495;53.400;7.608;2023-07-02T12:10:01;100685.13;;;20.60;50.61
73267;BME280;61495;53.400;7.608;2023-07-02T12:12:26;100681.31;;;20.61;51.39
73267;BME280;61495;53.400;7.608;2023-07-02T12:14:52;100683.75;;;20.72;51.07
73267;BME280;61495;53.400;7.608;2023-07-02T12:17:17;100676.91;;;20.70;50.90
73267;BME280;61495;53.400;7.608;2023-07-02T12:19:42;100686.44;;;20.67;50.71
73267;BME280;61495;53.400;7.608;2023-07-02T12:22:08;100684.31;;;20.59;50.93
73267;BME280;61495;53.400;7.608;2023-07-02T12:24:33;100688.97;;;20.38;50.55
73267;BME280;61495;53.400;7.608;2023-07-02T12:26:59;100684.91;;;20.06;51.56
73267;BME280;61495;53.400;7.608;2023-07-02T12:29:24;100700.16;;;20.22;51.81
73267;BME280;61495;53.400;7.608;2023-07-02T12:31:49;100700.69;;;20.19;51.43
73267;BME280;61495;53.400;7.608;2023-07-02T12:34:15;100697.69;;;20.15;52.27
73267;BME280;61495;53.400;7.608;2023-07-02T12:36:41;100695.53;;;20.27;50.52
73267;BME280;61495;53.400;7.608;2023-07-02T12:39:06;100720.03;;;20.07;51.19
73267;BME280;61495;53.400;7.608;2023-07-02T12:41:33;100722.72;;;20.12;51.80
73267;BME280;61495;53.400;7.608;2023-07-02T12:43:58;100720.53;;;20.14;51.23
73267;BME280;61495;53.400;7.608;2023-07-02T12:46:23;100725.47;;;19.92;51.90
73267;BME280;61495;53.400;7.608;2023-07-02T12:48:49;100720.53;;;20.14;52.58